Map

Track Data

SID SEASON NUMBER BASIN SUBBASIN NAME ISO_TIME NATURE LAT LON WMO_WIND WMO_PRES WMO_AGENCY TRACK_TYPE DIST2LAND LANDFALL IFLAG USA_AGENCY USA_ATCF_ID USA_LAT USA_LON USA_RECORD USA_STATUS USA_WIND USA_PRES USA_SSHS USA_R34_NE USA_R34_SE USA_R34_SW USA_R34_NW USA_R50_NE USA_R50_SE USA_R50_SW USA_R50_NW USA_R64_NE USA_R64_SE USA_R64_SW USA_R64_NW USA_POCI USA_ROCI USA_RMW USA_EYE TOKYO_LAT TOKYO_LON TOKYO_GRADE TOKYO_WIND TOKYO_PRES TOKYO_R50_DIR TOKYO_R50_LONG TOKYO_R50_SHORT TOKYO_R30_DIR TOKYO_R30_LONG TOKYO_R30_SHORT TOKYO_LAND CMA_LAT CMA_LON CMA_CAT CMA_WIND CMA_PRES HKO_LAT HKO_LON HKO_CAT HKO_WIND HKO_PRES NEWDELHI_LAT NEWDELHI_LON NEWDELHI_GRADE NEWDELHI_WIND NEWDELHI_PRES NEWDELHI_CI NEWDELHI_DP NEWDELHI_POCI REUNION_LAT REUNION_LON REUNION_TYPE REUNION_WIND REUNION_PRES REUNION_TNUM REUNION_CI REUNION_RMW REUNION_R34_NE REUNION_R34_SE REUNION_R34_SW REUNION_R34_NW REUNION_R50_NE REUNION_R50_SE REUNION_R50_SW REUNION_R50_NW REUNION_R64_NE REUNION_R64_SE REUNION_R64_SW REUNION_R64_NW BOM_LAT BOM_LON BOM_TYPE BOM_WIND BOM_PRES BOM_TNUM BOM_CI BOM_RMW BOM_R34_NE BOM_R34_SE BOM_R34_SW BOM_R34_NW BOM_R50_NE BOM_R50_SE BOM_R50_SW BOM_R50_NW BOM_R64_NE BOM_R64_SE BOM_R64_SW BOM_R64_NW BOM_ROCI BOM_POCI BOM_EYE BOM_POS_METHOD BOM_PRES_METHOD NADI_LAT NADI_LON NADI_CAT NADI_WIND NADI_PRES WELLINGTON_LAT WELLINGTON_LON WELLINGTON_WIND WELLINGTON_PRES DS824_LAT DS824_LON DS824_STAGE DS824_WIND DS824_PRES TD9636_LAT TD9636_LON TD9636_STAGE TD9636_WIND TD9636_PRES TD9635_LAT TD9635_LON TD9635_WIND TD9635_PRES TD9635_ROCI NEUMANN_LAT NEUMANN_LON NEUMANN_CLASS NEUMANN_WIND NEUMANN_PRES MLC_LAT MLC_LON MLC_CLASS MLC_WIND MLC_PRES USA_GUST BOM_GUST BOM_GUST_PER REUNION_GUST REUNION_GUST_PER USA_SEAHGT USA_SEARAD_NE USA_SEARAD_SE USA_SEARAD_SW USA_SEARAD_NW STORM_SPEED STORM_DIR
1992074S12185 1992 24 SP MM GENE 1992-03-13 18:00:00 TS -12.0000 -174.700 main 265 257 O___________O_ jtwc_sh SH261992 -12.0000 -174.700 25 -1 -12.0000 -174.700 TC 25 5 55
1992074S12185 1992 24 SP MM GENE 1992-03-13 21:00:00 TS -11.8450 -174.472 main 265 250 P___________P_ SH261992 -11.8450 -174.472 25 -1 -11.8450 -174.472 TC 25 6 58
1992074S12185 1992 24 SP MM GENE 1992-03-14 00:00:00 TS -11.7000 -174.200 main 252 244 O___________O_ jtwc_sh SH261992 -11.7000 -174.200 25 -1 -11.7000 -174.200 TC 25 7 66
1992074S12185 1992 24 SP MM GENE 1992-03-14 03:00:00 TS -11.5775 -173.857 main 244 236 P___________P_ SH261992 -11.5775 -173.857 25 -1 -11.5775 -173.857 TC 25 7 74
1992074S12185 1992 24 SP MM GENE 1992-03-14 06:00:00 TS -11.5000 -173.500 main 236 228 O___________O_ jtwc_sh SH261992 -11.5000 -173.500 25 -1 -11.5000 -173.500 TC 25 7 82
1992074S12185 1992 24 SP MM GENE 1992-03-14 09:00:00 TS -11.4849 -173.193 main 228 224 P___________P_ SH261992 -11.4849 -173.193 25 -1 -11.4849 -173.193 TC 25 6 90
1992074S12185 1992 24 SP MM GENE 1992-03-14 12:00:00 TS -11.5000 -172.900 main 224 223 O___________O_ jtwc_sh SH261992 -11.5000 -172.900 25 -1 -11.5000 -172.900 TC 25 6 90
1992074S12185 1992 24 SP MM GENE 1992-03-14 15:00:00 TS -11.4849 -172.607 main 223 223 P___________P_ SH261992 -11.4849 -172.607 25 -1 -11.4849 -172.607 TC 25 6 90
1992074S12185 1992 24 SP MM GENE 1992-03-14 18:00:00 TS -11.5000 -172.300 main 224 215 O___________O_ jtwc_sh SH261992 -11.5000 -172.300 25 -1 -11.5000 -172.300 TC 25 6 99
1992074S12185 1992 24 SP MM GENE 1992-03-14 21:00:00 TS -11.5850 -171.965 main 217 215 P___________P_ SH261992 -11.5850 -171.965 25 -1 -11.5850 -171.965 TC 25 7 106
1992074S12185 1992 24 SP MM GENE 1992-03-15 00:00:00 TS -11.7000 -171.600 main 219 219 O___________O_ jtwc_sh SH261992 -11.7000 -171.600 25 -1 -11.7000 -171.600 TC 25 8 106
1992074S12185 1992 24 SP MM GENE 1992-03-15 03:00:00 TS -11.7925 -171.207 main 230 230 P___________P_ SH261992 -11.7925 -171.207 27 -1 -11.7925 -171.207 TC 27 8 104
1992074S12185 1992 24 SP MM GENE 1992-03-15 06:00:00 TS -11.9000 -170.800 main 249 249 O___________O_ jtwc_sh SH261992 -11.9000 -170.800 30 -1 -11.9000 -170.800 TC 30 8 107
1992074S12185 1992 24 SP MM GENE 1992-03-15 09:00:00 TS -12.0274 -170.415 main 272 272 P___________P_ SH261992 -12.0274 -170.415 30 -1 -12.0274 -170.415 TC 30 8 111
1992074S12185 1992 24 SP MM GENE 1992-03-15 12:00:00 TS -12.2000 -170.000 35 995 wellington main 291 291 O___________O_ jtwc_sh SH261992 -12.2000 -170.000 30 -1 -12.2000 -170.000 TC 30 9 115
1992074S12185 1992 24 SP MM GENE 1992-03-15 15:00:00 TS -12.4199 -169.537 main 326 321 P___________P_ SH261992 -12.4199 -169.537 30 -1 -12.4199 -169.537 TC 30 11 117
1992074S12185 1992 24 SP MM GENE 1992-03-15 18:00:00 TS -12.7000 -169.000 35 995 wellington main 364 364 O___________O_ jtwc_sh SH261992 -12.7000 -169.000 30 -1 -12.7000 -169.000 TC 30 13 117
1992074S12185 1992 24 SP MM GENE 1992-03-15 21:00:00 TS -12.9974 -168.380 main 418 418 P___________P_ SH261992 -12.9974 -168.380 30 -1 -12.9974 -168.380 TC 30 15 119
1992074S12185 1992 24 SP MM GENE 1992-03-16 00:00:00 TS -13.4000 -167.700 40 990 wellington main 487 487 O___________O_ jtwc_sh SH261992 -13.4000 -167.700 30 -1 -13.4000 -167.700 TC 30 17 126
1992074S12185 1992 24 SP MM GENE 1992-03-16 03:00:00 TS -13.9699 -167.008 main 562 562 P___________P_ SH261992 -13.9699 -167.008 32 -1 -13.9699 -167.008 TC 32 18 131
1992074S12185 1992 24 SP MM GENE 1992-03-16 06:00:00 TS -14.6000 -166.300 40 990 wellington main 642 642 O___________O_ jtwc_sh SH261992 -14.6000 -166.300 35 0 -14.6000 -166.300 TC 35 18 130
1992074S12185 1992 24 SP MM GENE 1992-03-16 09:00:00 TS -15.1500 -165.577 main 725 725 P___________P_ SH261992 -15.1500 -165.577 37 0 -15.1500 -165.577 TC 37 17 129
1992074S12185 1992 24 SP MM GENE 1992-03-16 12:00:00 TS -15.7000 -164.900 40 990 wellington main 813 813 O___________O_ jtwc_sh SH261992 -15.7000 -164.900 40 0 -15.7000 -164.900 TC 40 17 133
1992074S12185 1992 24 SP MM GENE 1992-03-16 15:00:00 TS -16.2772 -164.320 main 893 893 P___________P_ SH261992 -16.2772 -164.320 45 0 -16.2772 -164.320 TC 45 16 139
1992074S12185 1992 24 SP MM GENE 1992-03-16 18:00:00 TS -16.9000 -163.800 45 987 wellington main 965 965 O___________O_ jtwc_sh SH261992 -16.9000 -163.800 50 0 -16.9000 -163.800 TC 50 16 143
1992074S12185 1992 24 SP MM GENE 1992-03-16 21:00:00 TS -17.5699 -163.285 main 1043 1043 P___________P_ SH261992 -17.5699 -163.285 52 0 -17.5699 -163.285 TC 52 17 146
1992074S12185 1992 24 SP MM GENE 1992-03-17 00:00:00 TS -18.3000 -162.800 50 985 wellington main 1123 1123 O___________O_ jtwc_sh SH261992 -18.3000 -162.800 55 0 -18.3000 -162.800 TC 55 19 149
1992074S12185 1992 24 SP MM GENE 1992-03-17 03:00:00 TS -19.1626 -162.279 main 1216 1216 P___________P_ SH261992 -19.0626 -162.290 57 0 -19.0626 -162.290 TC 57 20 153
1992074S12185 1992 24 SP MM GENE 1992-03-17 06:00:00 TS -20.0400 -161.860 50 985 wellington main 1296 1296 O_______O___O_ jtwc_sh SH261992 -19.9000 -161.900 60 0 -20.6000 -161.700 50 985 -19.9000 -161.900 TC 60 19 160
1992074S12185 1992 24 SP MM GENE 1992-03-17 09:00:00 TS -20.9501 -161.597 main 1382 1382 P_______P___P_ SH261992 -20.8273 -161.732 57 0 -21.2905 -161.244 50 985 -20.8273 -161.732 TC 57 19 169
1992074S12185 1992 24 SP MM GENE 1992-03-17 12:00:00 TS -21.8667 -161.467 50 985 wellington main 1449 1449 O_______O___O_ jtwc_sh SH261992 -21.8000 -161.700 55 0 -22.0000 -161.000 50 985 -21.8000 -161.700 TC 55 18 176
1992074S12185 1992 24 SP MM GENE 1992-03-17 15:00:00 TS -22.7474 -161.473 main 1504 1504 P_______P___P_ SH261992 -22.7499 -161.648 55 0 -22.7423 -161.122 50 985 -22.7499 -161.648 TC 55 18 185
1992074S12185 1992 24 SP MM GENE 1992-03-17 18:00:00 TS -23.6333 -161.633 50 985 wellington main 1563 1563 O_______O___O_ jtwc_sh SH261992 -23.7000 -161.700 55 0 -23.5000 -161.500 50 985 -23.7000 -161.700 TC 55 19 194
1992074S12185 1992 24 SP MM GENE 1992-03-17 21:00:00 TS -24.5444 -161.951 main 1604 1604 P_______P___P_ SH261992 -24.6725 -161.897 52 0 -24.2881 -162.058 50 985 -24.6725 -161.897 TC 52 19 198
1992074S12185 1992 24 SP MM GENE 1992-03-18 00:00:00 TS -25.4364 -162.282 50 985 wellington main 1659 1659 O_______O___O_ jtwc_sh SH261992 -25.6000 -162.200 50 0 -25.0000 -162.500 50 985 -25.6000 -162.200 TC 50 18 198
1992074S12185 1992 24 SP MM GENE 1992-03-18 03:00:00 TS -26.2516 -162.568 main 1718 1718 P_______P___P_ SH261992 -26.4302 -162.594 50 0 -25.5498 -162.494 50 985 -26.4302 -162.594 TC 50 17 197
1992074S12185 1992 24 SP MM GENE 1992-03-18 06:00:00 TS -27.0667 -162.822 50 985 wellington main 1778 1778 O_______O___O_ jtwc_sh SH261992 -27.2000 -162.900 50 0 -26.0000 -162.200 50 985 -27.2000 -162.900 TC 50 18 193
1992074S12185 1992 24 SP MM GENE 1992-03-18 09:00:00 TS -27.9643 -162.999 main 1851 1851 P___________P_ SH261992 -27.9643 -162.999 47 0 -27.9643 -162.999 TC 47 16 0
1992074S12185 1992 24 SP MM GENE 1992-03-18 12:00:00 TS -28.7000 -162.800 50 985 wellington main 1927 1927 O___________O_ jtwc_sh SH261992 -28.7000 -162.800 45 0 -28.7000 -162.800 TC 45 16 158
1992074S12185 1992 24 SP MM GENE 1992-03-18 15:00:00 TS -29.4593 -162.308 main 1982 1982 P___________P_ SH261992 -29.4593 -162.308 42 0 -29.4593 -162.308 TC 42 18 141
1992074S12185 1992 24 SP MM GENE 1992-03-18 18:00:00 TS -30.1000 -161.500 50 985 wellington main 2013 2013 O___________O_ jtwc_sh SH261992 -30.1000 -161.500 40 0 -30.1000 -161.500 TC 40 19 124
1992074S12185 1992 24 SP MM GENE 1992-03-18 21:00:00 TS -30.5199 -160.460 main 2075 2075 P___________P_ SH261992 -30.5199 -160.460 37 0 -30.5199 -160.460 TC 37 20 110
1992074S12185 1992 24 SP MM GENE 1992-03-19 00:00:00 ET -30.8000 -159.300 50 985 wellington main 2161 O___________O_ jtwc_sh SH261992 -30.8000 -159.300 35 0 -30.8000 -159.300 EX 35 21 106

Digital Typhoon Data and Search

About IBTrACS Database

This database is a web-friendly format of International Best Track Archive for Climate Stewardship (IBTrACS), a global best track data archive curated by NOAA dating back to 1842.

Updated: 2021-12-01